createdAt,value
2019-02-06T00:02:23.361Z,56199.21
2019-02-06T00:05:14.100Z,56223.89
2019-02-06T00:08:03.329Z,56178.65
2019-02-06T00:10:52.431Z,56161.17
2019-02-06T00:13:41.648Z,56187.90
2019-02-06T00:16:30.852Z,56187.90
2019-02-06T00:19:19.977Z,56166.31
2019-02-06T00:22:09.119Z,56211.55
2019-02-06T00:24:58.585Z,56250.63
2019-02-06T00:27:47.709Z,56204.36
2019-02-06T00:30:36.871Z,56182.76
2019-02-06T00:36:35.798Z,56199.21
2019-02-06T00:39:24.992Z,56196.13
2019-02-06T00:42:14.122Z,56200.24
2019-02-06T00:48:13.129Z,56246.52
2019-02-06T00:51:02.324Z,56205.38
2019-02-06T00:53:51.697Z,56202.30
2019-02-06T00:56:40.823Z,56207.44
2019-02-06T00:59:30.229Z,56197.16
2019-02-06T01:02:19.601Z,56182.76
2019-02-06T01:05:48.766Z,56206.41
2019-02-06T01:08:38.387Z,56213.61
2019-02-06T01:11:27.549Z,56213.61
2019-02-06T01:14:16.668Z,56199.21
2019-02-06T01:17:07.531Z,56212.58
2019-02-06T01:19:56.642Z,56244.46
2019-02-06T01:22:45.816Z,56199.21
2019-02-06T01:25:34.954Z,56243.43
2019-02-06T01:28:24.355Z,56219.78
2019-02-06T01:31:32.405Z,56230.06
2019-02-06T01:34:21.519Z,56223.89
2019-02-06T01:37:10.627Z,56212.58
2019-02-06T01:39:59.797Z,56256.80
2019-02-06T01:42:49.072Z,56207.44
2019-02-06T01:45:38.515Z,56221.84
2019-02-06T01:48:27.904Z,56217.72
2019-02-06T01:51:17.699Z,56223.89
2019-02-06T01:54:06.793Z,56199.21
2019-02-06T01:59:57.060Z,56190.99
2019-02-06T02:02:46.198Z,56222.87
2019-02-06T02:05:37.969Z,56219.78
2019-02-06T02:11:23.836Z,56240.34
2019-02-06T02:14:12.960Z,56228.01
2019-02-06T02:17:02.088Z,56231.09
2019-02-06T02:19:51.388Z,56228.01
2019-02-06T02:22:40.578Z,56255.77
2019-02-06T02:25:29.665Z,56212.58
2019-02-06T02:28:18.749Z,56202.30
2019-02-06T02:31:07.870Z,56160.14
2019-02-06T02:33:56.974Z,56209.50
2019-02-06T02:36:46.665Z,56214.64
2019-02-06T02:39:35.780Z,56210.52
2019-02-06T02:42:24.866Z,56223.89
2019-02-06T02:45:33.151Z,56213.61
2019-02-06T02:48:22.275Z,56212.58
2019-02-06T02:51:11.647Z,56175.56
2019-02-06T02:54:00.734Z,56223.89
2019-02-06T02:56:49.869Z,56211.55
2019-02-06T02:59:33.171Z,56208.47
2019-02-06T03:05:36.685Z,56254.74
2019-02-06T03:08:25.830Z,56199.21
2019-02-06T03:11:14.963Z,56195.10
2019-02-06T03:14:04.110Z,56243.43
2019-02-06T03:16:55.241Z,56225.95
2019-02-06T03:19:44.322Z,56249.60
2019-02-06T03:22:33.795Z,56199.21
2019-02-06T03:25:23.049Z,56224.92
2019-02-06T03:28:13.741Z,56218.75
2019-02-06T03:31:03.098Z,56217.72
2019-02-06T03:33:52.186Z,56194.07
2019-02-06T03:36:41.295Z,56199.21
2019-02-06T03:39:49.955Z,56210.52
2019-02-06T03:42:39.337Z,56242.40
2019-02-06T03:45:28.463Z,56236.23
2019-02-06T03:48:17.567Z,56242.40
2019-02-06T03:51:06.936Z,56229.04
2019-02-06T03:53:56.277Z,56218.75
2019-02-06T03:56:45.416Z,56190.99
2019-02-06T03:59:27.598Z,56217.72
2019-02-06T04:02:16.723Z,56232.12
2019-02-06T04:05:06.691Z,56230.06
2019-02-06T04:07:55.826Z,56192.02
2019-02-06T04:11:04.452Z,56192.02
2019-02-06T04:14:12.998Z,56241.37
2019-02-06T04:17:02.076Z,56219.78
2019-02-06T04:19:51.756Z,56215.67
2019-02-06T04:22:40.872Z,56237.26
2019-02-06T04:25:29.957Z,56219.78
2019-02-06T04:28:19.517Z,56252.69
2019-02-06T04:31:08.917Z,56203.33
2019-02-06T04:34:00.318Z,56219.78
2019-02-06T04:36:49.436Z,56239.32
2019-02-06T04:39:38.614Z,56215.67
2019-02-06T04:42:27.745Z,56207.44
2019-02-06T04:45:36.478Z,56219.78
2019-02-06T04:48:25.816Z,56210.52
2019-02-06T04:51:16.669Z,56210.52
2019-02-06T04:57:20.751Z,56173.51
2019-02-06T05:00:02.645Z,56211.55
2019-02-06T05:02:51.848Z,56252.69
2019-02-06T05:05:41.176Z,56246.52
2019-02-06T05:08:51.366Z,56237.26
2019-02-06T05:11:40.493Z,56230.06
2019-02-06T05:14:29.569Z,56238.29
2019-02-06T05:17:19.005Z,56228.01
2019-02-06T05:20:49.450Z,56205.38
2019-02-06T05:23:38.625Z,56226.98
2019-02-06T05:26:27.702Z,56213.61
2019-02-06T05:29:18.588Z,56241.37
2019-02-06T05:32:07.730Z,56202.30
2019-02-06T05:34:58.856Z,56205.38
2019-02-06T05:37:47.976Z,56232.12
2019-02-06T05:40:37.400Z,56208.47
2019-02-06T05:43:27.084Z,56240.34
2019-02-06T05:46:16.160Z,56217.72
2019-02-06T05:49:06.045Z,56174.54
2019-02-06T05:51:55.502Z,56225.95
2019-02-06T05:55:04.875Z,56247.54
2019-02-06T05:57:54.993Z,56204.36
2019-02-06T06:00:42.207Z,56222.87
2019-02-06T06:03:31.557Z,56244.46
2019-02-06T06:06:20.686Z,56210.52
2019-02-06T06:09:10.146Z,56232.12
2019-02-06T06:11:59.516Z,56258.86
2019-02-06T06:14:48.618Z,56199.21
2019-02-06T06:20:32.657Z,56219.78
2019-02-06T06:23:22.122Z,56211.55
2019-02-06T06:26:11.366Z,56242.40
2019-02-06T06:29:00.732Z,56220.81
2019-02-06T06:31:49.837Z,56232.12
2019-02-06T06:34:38.979Z,56208.47
2019-02-06T06:37:28.096Z,56255.77
2019-02-06T06:40:19.881Z,56266.05
2019-02-06T06:43:09.474Z,56207.44
2019-02-06T06:45:58.558Z,56244.46
2019-02-06T06:48:47.669Z,56213.61
2019-02-06T06:51:36.859Z,56252.69
2019-02-06T06:54:26.278Z,56201.27
2019-02-06T06:57:15.401Z,56224.92
2019-02-06T07:00:05.882Z,56234.18
2019-02-06T07:02:55.092Z,56258.86
2019-02-06T07:05:36.768Z,56205.38
2019-02-06T07:08:26.201Z,56209.50
2019-02-06T07:11:15.317Z,56211.55
2019-02-06T07:14:23.551Z,56221.84
2019-02-06T07:17:12.680Z,56188.93
2019-02-06T07:20:01.759Z,56238.29
2019-02-06T07:22:51.121Z,56198.19
2019-02-06T07:25:41.936Z,56201.27
2019-02-06T07:28:31.064Z,56207.44
2019-02-06T07:31:20.220Z,56230.06
2019-02-06T07:38:01.208Z,56214.64
2019-02-06T07:40:50.574Z,56193.05
2019-02-06T07:43:39.769Z,56184.82
2019-02-06T07:46:29.319Z,56199.21
2019-02-06T07:49:37.761Z,56246.52
2019-02-06T07:52:26.871Z,56209.50
2019-02-06T07:55:35.096Z,56219.78
2019-02-06T07:58:24.207Z,56220.81
2019-02-06T08:01:04.648Z,56202.30
2019-02-06T08:03:53.814Z,56203.33
2019-02-06T08:06:43.423Z,56159.11
2019-02-06T08:09:32.643Z,56185.85
2019-02-06T08:12:21.798Z,56195.10
2019-02-06T08:15:32.713Z,56233.15
2019-02-06T08:18:22.081Z,56197.16
2019-02-06T08:21:11.271Z,56207.44
2019-02-06T08:24:00.437Z,56180.71
2019-02-06T08:26:49.570Z,56186.87
2019-02-06T08:29:38.959Z,56225.95
2019-02-06T08:32:30.379Z,56161.17
2019-02-06T08:35:20.080Z,56193.05
2019-02-06T08:38:11.063Z,56198.19
2019-02-06T08:41:00.192Z,56137.52
2019-02-06T08:43:49.605Z,56181.73
2019-02-06T08:46:39.078Z,56205.38
2019-02-06T08:49:28.548Z,56195.10
2019-02-06T08:52:18.047Z,56195.10
2019-02-06T08:55:08.758Z,56197.16
2019-02-06T08:57:58.205Z,56204.36
2019-02-06T09:00:47.318Z,56174.54
2019-02-06T09:03:28.787Z,56149.86
2019-02-06T09:06:17.918Z,56221.84
2019-02-06T09:09:49.210Z,56170.42
2019-02-06T09:12:38.642Z,56139.57
2019-02-06T09:15:27.827Z,56212.58
2019-02-06T09:18:16.985Z,56186.87
2019-02-06T09:21:06.101Z,56147.80
2019-02-06T09:23:55.225Z,56125.18
2019-02-06T09:26:44.358Z,56140.61
2019-02-06T09:29:33.931Z,56107.70
2019-02-06T09:32:23.165Z,56088.16
2019-02-06T09:35:13.117Z,56055.26
2019-02-06T09:41:32.900Z,56073.77
2019-02-06T09:44:22.313Z,56044.98
2019-02-06T09:47:11.457Z,56065.54
2019-02-06T09:50:01.043Z,56077.88
2019-02-06T09:52:50.212Z,56090.22
2019-02-06T09:55:58.625Z,56083.02
2019-02-06T09:58:49.734Z,56072.74
2019-02-06T10:01:31.448Z,56094.33
2019-02-06T10:04:21.150Z,56104.62
2019-02-06T10:07:10.303Z,56142.66
2019-02-06T10:09:59.429Z,56156.03
2019-02-06T10:13:07.862Z,56145.75
2019-02-06T10:15:57.320Z,56173.51
2019-02-06T10:18:46.471Z,56153.97
2019-02-06T10:21:35.655Z,56139.57
2019-02-06T10:24:24.999Z,56181.73
2019-02-06T10:30:50.696Z,56165.28
2019-02-06T10:33:47.155Z,56171.45
2019-02-06T10:36:36.252Z,56137.52
2019-02-06T10:39:34.263Z,56139.57
2019-02-06T10:42:16.595Z,56172.48
2019-02-06T10:45:46.074Z,56159.11
2019-02-06T10:48:35.528Z,56141.63
2019-02-06T10:51:25.122Z,56151.91
2019-02-06T10:54:14.768Z,56161.17
2019-02-06T10:57:05.874Z,56173.51
2019-02-06T10:59:54.977Z,56159.11
2019-02-06T11:02:37.395Z,56143.69
2019-02-06T11:05:26.601Z,56188.93
2019-02-06T11:08:15.739Z,56157.05
2019-02-06T11:14:33.858Z,56149.86
2019-02-06T11:17:23.039Z,56166.31
2019-02-06T11:20:53.563Z,56168.37
2019-02-06T11:23:43.109Z,56153.97
2019-02-06T11:26:52.357Z,56139.57
2019-02-06T11:30:02.503Z,56151.91
2019-02-06T11:32:51.613Z,56138.55
2019-02-06T11:35:41.070Z,56172.48
2019-02-06T11:38:30.559Z,56178.65
2019-02-06T11:41:20.097Z,56175.56
2019-02-06T11:44:09.576Z,56152.94
2019-02-06T11:47:00.687Z,56184.82
2019-02-06T11:52:47.629Z,56132.38
2019-02-06T11:55:37.424Z,56144.71
2019-02-06T11:58:28.338Z,56150.89
2019-02-06T12:04:13.982Z,56131.35
2019-02-06T12:07:03.116Z,56166.31
2019-02-06T12:09:52.263Z,56155.00
2019-02-06T12:12:41.491Z,56178.65
2019-02-06T12:15:31.194Z,56146.77
2019-02-06T12:18:20.351Z,56186.87
2019-02-06T12:21:09.446Z,56148.83
2019-02-06T12:23:58.608Z,56140.61
2019-02-06T12:26:48.058Z,56162.20
2019-02-06T12:29:39.501Z,56115.93
2019-02-06T12:32:52.236Z,56114.90
2019-02-06T12:35:39.064Z,56174.54
2019-02-06T12:38:28.284Z,56131.35
2019-02-06T12:41:17.816Z,56149.86
2019-02-06T12:44:07.256Z,56172.48
2019-02-06T12:46:56.359Z,56183.79
2019-02-06T12:49:45.592Z,56133.41
2019-02-06T12:52:34.818Z,56127.23
2019-02-06T12:56:04.903Z,56097.42
2019-02-06T12:58:54.105Z,56174.54
2019-02-06T13:01:43.590Z,56133.41
2019-02-06T13:04:25.294Z,56162.20
2019-02-06T13:07:14.755Z,56165.28
2019-02-06T13:13:32.668Z,56124.15
2019-02-06T13:16:22.415Z,56136.49
2019-02-06T13:19:11.884Z,56121.07
2019-02-06T13:22:01.051Z,56142.66
2019-02-06T13:24:50.196Z,56117.98
2019-02-06T13:27:39.697Z,56131.35
2019-02-06T13:31:09.733Z,56121.07
2019-02-06T13:33:59.457Z,56123.12
2019-02-06T13:36:48.849Z,56137.52
2019-02-06T13:39:38.346Z,56130.32
2019-02-06T13:42:27.796Z,56144.71
2019-02-06T13:45:40.741Z,56112.84
2019-02-06T13:48:29.832Z,56136.49
2019-02-06T13:51:19.744Z,56133.41
2019-02-06T13:57:20.113Z,56155.00
2019-02-06T14:00:52.526Z,56140.61
2019-02-06T14:03:35.279Z,56132.38
2019-02-06T14:06:24.429Z,56163.23
2019-02-06T14:09:08.784Z,56203.33
2019-02-06T14:11:58.402Z,56162.20
2019-02-06T14:14:47.580Z,56159.11
2019-02-06T14:17:37.033Z,56149.86
2019-02-06T14:20:26.641Z,56153.97
2019-02-06T14:23:18.834Z,56159.11
2019-02-06T14:26:46.705Z,56153.97
2019-02-06T14:30:14.395Z,56165.28
2019-02-06T14:33:42.063Z,56112.84
2019-02-06T14:37:09.691Z,56168.37
2019-02-06T14:40:21.742Z,56127.23
2019-02-06T14:43:33.436Z,56145.75
2019-02-06T14:47:01.112Z,56167.34
2019-02-06T14:50:20.969Z,56161.17
2019-02-06T14:53:48.623Z,56160.14
2019-02-06T14:57:16.309Z,56188.93
2019-02-06T15:00:29.003Z,56134.43
2019-02-06T15:03:24.019Z,56195.10
2019-02-06T15:06:51.690Z,56199.21
2019-02-06T15:10:19.336Z,56135.46
2019-02-06T15:13:35.176Z,56170.42
2019-02-06T15:17:03.451Z,56168.37
2019-02-06T15:20:32.843Z,56195.10
2019-02-06T15:23:45.232Z,56169.39
2019-02-06T15:27:12.855Z,56180.71
2019-02-06T15:30:40.552Z,56170.42
2019-02-06T15:34:08.165Z,56234.18
2019-02-06T15:37:35.827Z,56204.36
2019-02-06T15:41:03.483Z,56149.86
2019-02-06T15:44:31.126Z,56150.89
2019-02-06T15:47:58.774Z,56194.07
2019-02-06T15:51:26.818Z,56183.79
2019-02-06T15:54:50.235Z,56172.48
2019-02-06T15:58:02.211Z,56201.27
2019-02-06T16:01:29.820Z,56212.58
2019-02-06T16:04:38.141Z,56174.54
2019-02-06T16:07:53.655Z,56185.85
2019-02-06T16:11:05.677Z,56210.52
2019-02-06T16:14:18.258Z,56159.11
2019-02-06T16:17:45.914Z,56173.51
2019-02-06T16:21:13.866Z,56182.76
2019-02-06T16:24:41.552Z,56205.38
2019-02-06T16:28:09.716Z,56209.50
2019-02-06T16:31:24.020Z,56207.44
2019-02-06T16:34:51.926Z,56180.71
2019-02-06T16:38:19.551Z,56198.19
2019-02-06T16:41:53.459Z,56164.25
2019-02-06T16:45:16.550Z,56190.99
2019-02-06T16:48:44.448Z,56188.93
2019-02-06T16:51:55.469Z,56232.12
2019-02-06T16:55:09.272Z,56277.36
2019-02-06T16:58:36.950Z,56209.50
2019-02-06T17:02:04.639Z,56206.41
2019-02-06T17:05:06.034Z,56176.59
2019-02-06T17:08:06.832Z,56158.09
2019-02-06T17:11:34.455Z,56206.41
2019-02-06T17:15:02.187Z,56184.82
2019-02-06T17:18:29.828Z,56215.67
2019-02-06T17:21:42.445Z,56151.91
2019-02-06T17:25:10.371Z,56219.78
2019-02-06T17:28:38.040Z,56211.55
2019-02-06T17:32:15.541Z,56174.54
2019-02-06T17:35:43.161Z,56217.72
2019-02-06T17:38:55.244Z,56185.85
2019-02-06T17:42:22.913Z,56213.61
2019-02-06T17:45:50.586Z,56233.15
2019-02-06T17:49:03.866Z,56164.25
2019-02-06T17:52:31.557Z,56213.61
2019-02-06T17:56:01.246Z,56207.44
2019-02-06T17:58:50.421Z,56233.15
2019-02-06T18:01:45.951Z,56218.75
2019-02-06T18:04:32.590Z,56199.21
2019-02-06T18:07:22.050Z,56205.38
2019-02-06T18:10:14.713Z,56177.62
2019-02-06T18:13:06.302Z,56187.90
2019-02-06T18:15:55.807Z,56213.61
2019-02-06T18:18:47.020Z,56181.73
2019-02-06T18:21:36.589Z,56214.64
2019-02-06T18:24:26.009Z,56204.36
2019-02-06T18:27:15.173Z,56188.93
2019-02-06T18:33:34.608Z,56163.23
2019-02-06T18:36:42.980Z,56253.71
2019-02-06T18:39:32.250Z,56213.61
2019-02-06T18:42:21.394Z,56172.48
2019-02-06T18:45:51.958Z,56195.10
2019-02-06T18:48:42.698Z,56184.82
2019-02-06T18:51:31.853Z,56223.89
2019-02-06T18:54:21.284Z,56216.70
2019-02-06T18:57:10.543Z,56194.07
2019-02-06T18:59:59.726Z,56196.13
2019-02-06T19:02:48.906Z,56203.33
2019-02-06T19:05:32.546Z,56181.73
2019-02-06T19:08:21.945Z,56219.78
2019-02-06T19:11:13.055Z,56180.71
2019-02-06T19:14:02.372Z,56199.21
2019-02-06T19:16:51.801Z,56193.05
2019-02-06T19:19:41.268Z,56217.72
2019-02-06T19:22:32.920Z,56240.34
2019-02-06T19:25:23.922Z,56168.37
2019-02-06T19:28:13.182Z,56194.07
2019-02-06T19:31:02.393Z,56206.41
2019-02-06T19:33:51.832Z,56215.67
2019-02-06T19:36:43.054Z,56216.70
2019-02-06T19:39:32.619Z,56201.27
2019-02-06T19:42:21.740Z,56234.18
2019-02-06T19:45:30.402Z,56188.93
2019-02-06T19:48:22.413Z,56195.10
2019-02-06T19:51:12.354Z,56203.33
2019-02-06T19:54:01.549Z,56224.92
2019-02-06T19:56:50.952Z,56177.62
2019-02-06T19:59:40.499Z,56232.12
2019-02-06T20:02:49.256Z,56211.55
2019-02-06T20:05:31.319Z,56195.10
2019-02-06T20:08:20.694Z,56188.93
2019-02-06T20:11:10.203Z,56232.12
2019-02-06T20:13:59.468Z,56199.21
2019-02-06T20:16:48.588Z,56211.55
2019-02-06T20:19:38.011Z,56185.85
2019-02-06T20:22:27.172Z,56199.21
2019-02-06T20:28:32.139Z,56183.79
2019-02-06T20:31:22.998Z,56185.85
2019-02-06T20:34:12.152Z,56208.47
2019-02-06T20:37:01.726Z,56192.02
2019-02-06T20:39:50.915Z,56220.81
2019-02-06T20:42:40.323Z,56166.31
2019-02-06T20:45:29.574Z,56200.24
2019-02-06T20:48:19.079Z,56198.19
2019-02-06T20:51:08.258Z,56187.90
2019-02-06T20:53:57.460Z,56169.39
2019-02-06T20:56:48.350Z,56218.75
2019-02-06T20:59:37.512Z,56193.05
2019-02-06T21:02:29.464Z,56195.10
2019-02-06T21:05:10.567Z,56178.65
2019-02-06T21:07:52.480Z,56183.79
2019-02-06T21:10:42.245Z,56186.87
2019-02-06T21:13:33.396Z,56190.99
2019-02-06T21:16:22.904Z,56213.61
2019-02-06T21:19:12.047Z,56197.16
2019-02-06T21:22:01.398Z,56197.16
2019-02-06T21:24:52.795Z,56200.24
2019-02-06T21:27:42.040Z,56203.33
2019-02-06T21:30:33.119Z,56165.28
2019-02-06T21:33:22.237Z,56195.10
2019-02-06T21:36:11.922Z,56181.73
2019-02-06T21:39:01.377Z,56169.39
2019-02-06T21:41:50.853Z,56194.07
2019-02-06T21:44:39.993Z,56188.93
2019-02-06T21:47:31.129Z,56202.30
2019-02-06T21:50:21.293Z,56232.12
2019-02-06T21:53:10.426Z,56192.02
2019-02-06T21:55:59.629Z,56217.72
2019-02-06T21:58:48.738Z,56184.82
2019-02-06T22:01:37.934Z,56172.48
2019-02-06T22:04:27.034Z,56202.30
2019-02-06T22:07:09.169Z,56180.71
2019-02-06T22:09:58.930Z,56213.61
2019-02-06T22:12:48.373Z,56203.33
2019-02-06T22:15:38.089Z,56181.73
2019-02-06T22:18:29.215Z,56211.55
2019-02-06T22:21:18.317Z,56229.04
2019-02-06T22:24:07.822Z,56197.16
2019-02-06T22:26:56.954Z,56213.61
2019-02-06T22:29:46.147Z,56221.84
2019-02-06T22:32:35.284Z,56217.72
2019-02-06T22:35:24.593Z,56180.71
2019-02-06T22:38:13.739Z,56198.19
2019-02-06T22:41:03.127Z,56203.33
2019-02-06T22:43:52.540Z,56231.09
2019-02-06T22:46:41.999Z,56211.55
2019-02-06T22:49:32.834Z,56216.70
2019-02-06T22:52:23.004Z,56214.64
2019-02-06T22:55:13.171Z,56214.64
2019-02-06T22:58:02.543Z,56219.78
2019-02-06T23:01:30.242Z,56231.09
2019-02-06T23:04:19.775Z,56235.20
2019-02-06T23:07:02.359Z,56220.81
2019-02-06T23:09:51.787Z,56205.38
2019-02-06T23:12:41.231Z,56201.27
2019-02-06T23:15:30.407Z,56216.70
2019-02-06T23:18:19.508Z,56208.47
2019-02-06T23:21:08.777Z,56201.27
2019-02-06T23:23:59.654Z,56207.44
2019-02-06T23:26:48.751Z,56225.95
2019-02-06T23:29:39.623Z,56230.06
2019-02-06T23:32:28.747Z,56219.78
2019-02-06T23:35:17.892Z,56231.09
2019-02-06T23:38:09.575Z,56201.27
2019-02-06T23:40:59.243Z,56234.18
2019-02-06T23:43:48.968Z,56209.50
2019-02-06T23:46:38.405Z,56224.92
2019-02-06T23:49:27.629Z,56202.30
2019-02-06T23:52:16.819Z,56231.09
2019-02-06T23:54:46.673Z,56211.55
2019-02-06T23:57:36.540Z,56229.04
